createdAt,value
2016-12-22T00:00:01.564Z,927.32
2016-12-22T00:00:18.302Z,927.28
2016-12-22T00:00:35.008Z,927.31
2016-12-22T00:00:51.754Z,927.3
2016-12-22T00:01:08.987Z,927.31
2016-12-22T00:01:25.738Z,927.29
2016-12-22T00:01:42.440Z,927.32
2016-12-22T00:01:59.154Z,927.36
2016-12-22T00:02:15.945Z,927.33
2016-12-22T00:02:32.670Z,927.37
2016-12-22T00:02:49.417Z,927.35
2016-12-22T00:03:06.159Z,927.31
2016-12-22T00:03:22.884Z,927.34
2016-12-22T00:03:39.617Z,927.33
2016-12-22T00:03:56.383Z,927.35
2016-12-22T00:04:13.085Z,927.36
2016-12-22T00:04:29.811Z,927.35
2016-12-22T00:04:46.538Z,927.37
2016-12-22T00:05:03.346Z,927.3
2016-12-22T00:05:20.098Z,927.34
2016-12-22T00:05:36.821Z,927.31
2016-12-22T00:05:53.557Z,927.35
2016-12-22T00:06:10.301Z,927.34
2016-12-22T00:06:27.028Z,927.33
2016-12-22T00:06:43.734Z,927.34
2016-12-22T00:07:00.479Z,927.32
2016-12-22T00:07:17.250Z,927.3
2016-12-22T00:07:33.971Z,927.35
2016-12-22T00:07:50.702Z,927.31
2016-12-22T00:08:07.438Z,927.32
2016-12-22T00:08:24.232Z,927.32
2016-12-22T00:08:40.974Z,927.37
2016-12-22T00:08:57.694Z,927.32
2016-12-22T00:09:14.410Z,927.35
2016-12-22T00:09:31.163Z,927.36
2016-12-22T00:09:47.866Z,927.34
2016-12-22T00:10:04.690Z,927.3
2016-12-22T00:10:21.956Z,927.34
2016-12-22T00:10:38.674Z,927.32
2016-12-22T00:10:55.437Z,927.3
2016-12-22T00:11:12.179Z,927.32
2016-12-22T00:11:28.924Z,927.34
2016-12-22T00:11:45.633Z,927.33
2016-12-22T00:12:02.870Z,927.36
2016-12-22T00:12:19.566Z,927.35
2016-12-22T00:12:36.270Z,927.31
2016-12-22T00:12:53.523Z,927.3
2016-12-22T00:13:10.231Z,927.33
2016-12-22T00:13:26.972Z,927.35
2016-12-22T00:13:43.685Z,927.33
2016-12-22T00:14:00.391Z,927.34
2016-12-22T00:14:17.112Z,927.35
2016-12-22T00:14:33.938Z,927.33
2016-12-22T00:14:50.648Z,927.34
2016-12-22T00:15:07.363Z,927.35
2016-12-22T00:15:24.067Z,927.36
2016-12-22T00:15:40.787Z,927.34
2016-12-22T00:15:57.537Z,927.32
2016-12-22T00:16:14.276Z,927.31
2016-12-22T00:16:30.992Z,927.33
2016-12-22T00:16:47.722Z,927.33
2016-12-22T00:17:04.453Z,927.37
2016-12-22T00:17:21.721Z,927.35
2016-12-22T00:17:38.449Z,927.35
2016-12-22T00:17:55.175Z,927.38
2016-12-22T00:18:11.897Z,927.38
2016-12-22T00:18:28.663Z,927.39
2016-12-22T00:18:45.441Z,927.38
2016-12-22T00:19:02.200Z,927.38
2016-12-22T00:19:18.919Z,927.36
2016-12-22T00:19:35.635Z,927.38
2016-12-22T00:19:52.414Z,927.38
2016-12-22T00:20:09.165Z,927.38
2016-12-22T00:20:25.901Z,927.39
2016-12-22T00:20:43.145Z,927.39
2016-12-22T00:21:00.392Z,927.4
2016-12-22T00:21:17.109Z,927.37
2016-12-22T00:21:33.829Z,927.38
2016-12-22T00:21:50.522Z,927.39
2016-12-22T00:22:07.274Z,927.39
2016-12-22T00:22:24.030Z,927.4
2016-12-22T00:22:40.987Z,927.37
2016-12-22T00:22:57.714Z,927.4
2016-12-22T00:23:14.510Z,927.38
2016-12-22T00:23:31.223Z,927.38
2016-12-22T00:23:47.940Z,927.38
2016-12-22T00:24:04.673Z,927.37
2016-12-22T00:24:21.409Z,927.43
2016-12-22T00:24:38.213Z,927.39
2016-12-22T00:24:54.971Z,927.41
2016-12-22T00:25:11.794Z,927.42
2016-12-22T00:25:28.590Z,927.43
2016-12-22T00:25:45.321Z,927.42
2016-12-22T00:26:02.035Z,927.43
2016-12-22T00:26:18.795Z,927.42
2016-12-22T00:26:35.563Z,927.47
2016-12-22T00:26:52.306Z,927.46
2016-12-22T00:27:09.016Z,927.48
2016-12-22T00:27:25.751Z,927.48
2016-12-22T00:27:42.468Z,927.48
2016-12-22T00:27:59.260Z,927.47
2016-12-22T00:28:15.998Z,927.48
2016-12-22T00:28:32.722Z,927.48
2016-12-22T00:28:49.439Z,927.5
2016-12-22T00:29:06.152Z,927.47
2016-12-22T00:29:22.912Z,927.51
2016-12-22T00:29:39.685Z,927.5
2016-12-22T00:29:56.408Z,927.49
2016-12-22T00:30:13.138Z,927.49
2016-12-22T00:30:29.901Z,927.53
2016-12-22T00:30:46.611Z,927.55
2016-12-22T00:31:03.312Z,927.48
2016-12-22T00:31:20.046Z,927.54
2016-12-22T00:31:36.788Z,927.55
2016-12-22T00:31:53.566Z,927.57
2016-12-22T00:32:10.309Z,927.57
2016-12-22T00:32:27.022Z,927.57
2016-12-22T00:32:43.749Z,927.61
2016-12-22T00:33:00.503Z,927.6
2016-12-22T00:33:17.237Z,927.59
2016-12-22T00:33:33.960Z,927.63
2016-12-22T00:33:50.669Z,927.64
2016-12-22T00:34:07.612Z,927.66
2016-12-22T00:34:24.319Z,927.65
2016-12-22T00:34:41.020Z,927.67
2016-12-22T00:34:57.739Z,927.7
2016-12-22T00:35:14.557Z,927.73
2016-12-22T00:35:31.267Z,927.73
2016-12-22T00:35:48.028Z,927.72
2016-12-22T00:36:04.735Z,927.74
2016-12-22T00:36:21.500Z,927.71
2016-12-22T00:36:38.241Z,927.74
2016-12-22T00:36:54.964Z,927.74
2016-12-22T00:37:11.681Z,927.72
2016-12-22T00:37:28.413Z,927.76
2016-12-22T00:37:45.146Z,927.81
2016-12-22T00:38:01.888Z,927.79
2016-12-22T00:38:18.862Z,927.81
2016-12-22T00:38:35.635Z,927.78
2016-12-22T00:38:52.384Z,927.83
2016-12-22T00:39:09.112Z,927.81
2016-12-22T00:39:25.807Z,927.85
2016-12-22T00:39:42.591Z,927.85
2016-12-22T00:39:59.356Z,927.82
2016-12-22T00:40:16.286Z,927.83
2016-12-22T00:40:33.038Z,927.88
2016-12-22T00:40:50.162Z,927.92
2016-12-22T00:41:07.478Z,927.89
2016-12-22T00:41:24.172Z,927.88
2016-12-22T00:41:40.979Z,927.91
2016-12-22T00:41:57.689Z,927.9
2016-12-22T00:42:14.403Z,927.89
2016-12-22T00:42:31.117Z,927.89
2016-12-22T00:42:48.469Z,927.92
2016-12-22T00:43:05.172Z,927.91
2016-12-22T00:43:21.909Z,927.91
2016-12-22T00:43:38.661Z,927.9
2016-12-22T00:43:55.428Z,927.92
2016-12-22T00:44:12.155Z,927.91
2016-12-22T00:44:28.885Z,927.93
2016-12-22T00:44:45.647Z,927.94
2016-12-22T00:45:02.688Z,927.96
2016-12-22T00:45:19.947Z,927.96
2016-12-22T00:45:36.888Z,927.98
2016-12-22T00:45:53.707Z,927.94
2016-12-22T00:46:10.484Z,927.93
2016-12-22T00:46:27.280Z,927.92
2016-12-22T00:46:44.024Z,927.91
2016-12-22T00:47:00.772Z,927.91
2016-12-22T00:47:17.535Z,927.93
2016-12-22T00:47:34.246Z,927.94
2016-12-22T00:47:50.965Z,927.94
2016-12-22T00:48:07.705Z,927.93
2016-12-22T00:48:24.430Z,927.89
2016-12-22T00:48:41.158Z,927.93
2016-12-22T00:48:57.908Z,927.9
2016-12-22T00:49:14.624Z,927.91
2016-12-22T00:49:31.349Z,927.92
2016-12-22T00:49:48.057Z,927.93
2016-12-22T00:50:04.864Z,927.92
2016-12-22T00:50:21.798Z,927.91
2016-12-22T00:50:38.526Z,927.95
2016-12-22T00:50:55.243Z,927.97
2016-12-22T00:51:12.014Z,927.95
2016-12-22T00:51:28.728Z,927.95
2016-12-22T00:51:45.448Z,927.94
2016-12-22T00:52:02.173Z,927.97
2016-12-22T00:52:18.912Z,927.98
2016-12-22T00:52:35.669Z,927.98
2016-12-22T00:52:52.405Z,927.95
2016-12-22T00:53:09.147Z,927.98
2016-12-22T00:53:25.910Z,927.97
2016-12-22T00:53:42.635Z,927.94
2016-12-22T00:53:59.390Z,928
2016-12-22T00:54:16.137Z,927.98
2016-12-22T00:54:32.859Z,927.97
2016-12-22T00:54:49.573Z,927.98
2016-12-22T00:55:06.335Z,928.01
2016-12-22T00:55:23.166Z,928.03
2016-12-22T00:55:40.406Z,928.06
2016-12-22T00:55:57.129Z,928.03
2016-12-22T00:56:14.369Z,928.01
2016-12-22T00:56:31.087Z,928.03
2016-12-22T00:56:47.815Z,928.04
2016-12-22T00:57:04.546Z,928.04
2016-12-22T00:57:21.275Z,928.04
2016-12-22T00:57:38.010Z,928.06
2016-12-22T00:57:54.737Z,928.04
2016-12-22T00:58:11.500Z,928.06
2016-12-22T00:58:28.222Z,928.04
2016-12-22T00:58:44.949Z,928.02
2016-12-22T00:59:01.671Z,928
2016-12-22T00:59:18.404Z,928.03
2016-12-22T00:59:35.173Z,928.03
2016-12-22T00:59:51.917Z,928.05
2016-12-22T01:00:08.626Z,928.01
2016-12-22T01:00:25.373Z,928.02
2016-12-22T01:00:42.098Z,928.02
2016-12-22T01:00:58.825Z,928.02
2016-12-22T01:01:15.571Z,927.97
2016-12-22T01:01:32.308Z,927.99
2016-12-22T01:01:49.042Z,928.01
2016-12-22T01:02:05.803Z,928.01
2016-12-22T01:02:22.519Z,928.05
2016-12-22T01:02:39.242Z,928.03
2016-12-22T01:02:55.985Z,928.03
2016-12-22T01:03:12.711Z,927.98
2016-12-22T01:03:29.451Z,927.98
2016-12-22T01:03:46.182Z,928.02
2016-12-22T01:04:02.900Z,928.08
2016-12-22T01:04:19.623Z,928.07
2016-12-22T01:04:36.359Z,928.02
2016-12-22T01:04:53.092Z,927.99
2016-12-22T01:05:09.813Z,928.01
2016-12-22T01:05:26.630Z,928.02
2016-12-22T01:05:43.361Z,928.04
2016-12-22T01:06:00.090Z,928.03
2016-12-22T01:06:16.803Z,928.04
2016-12-22T01:06:33.559Z,928.04
2016-12-22T01:06:50.275Z,928.03
2016-12-22T01:07:07.008Z,927.97
2016-12-22T01:07:23.731Z,928.01
2016-12-22T01:07:40.429Z,928.03
2016-12-22T01:07:57.149Z,928.04
2016-12-22T01:08:14.619Z,928.03
2016-12-22T01:08:31.343Z,927.98
2016-12-22T01:08:48.063Z,927.98
2016-12-22T01:09:04.803Z,927.99
2016-12-22T01:09:21.515Z,927.94
2016-12-22T01:09:38.279Z,927.96
2016-12-22T01:09:55.008Z,927.96
2016-12-22T01:10:12.298Z,927.98
2016-12-22T01:10:29.211Z,927.97
2016-12-22T01:10:45.936Z,928
2016-12-22T01:11:02.677Z,927.92
2016-12-22T01:11:19.402Z,927.94
2016-12-22T01:11:36.344Z,927.99
2016-12-22T01:11:53.039Z,927.98
2016-12-22T01:12:09.844Z,927.95
2016-12-22T01:12:26.542Z,927.96
2016-12-22T01:12:43.261Z,927.91
2016-12-22T01:12:59.975Z,927.95
2016-12-22T01:13:16.708Z,927.97
2016-12-22T01:13:33.478Z,927.94
2016-12-22T01:13:50.214Z,927.96
2016-12-22T01:14:06.951Z,927.95
2016-12-22T01:14:23.660Z,927.96
2016-12-22T01:14:40.383Z,927.91
2016-12-22T01:14:57.137Z,927.93
2016-12-22T01:15:13.902Z,927.95
2016-12-22T01:15:30.612Z,927.95
2016-12-22T01:15:47.377Z,927.93
2016-12-22T01:16:04.112Z,927.92
2016-12-22T01:16:20.817Z,927.93
2016-12-22T01:16:37.544Z,927.95
2016-12-22T01:16:54.255Z,927.95
2016-12-22T01:17:10.981Z,927.93
2016-12-22T01:17:27.800Z,927.9
2016-12-22T01:17:44.502Z,927.95
2016-12-22T01:18:01.234Z,927.89
2016-12-22T01:18:17.978Z,927.88
2016-12-22T01:18:34.686Z,927.93
2016-12-22T01:18:51.428Z,927.88
2016-12-22T01:19:08.152Z,927.92
2016-12-22T01:19:24.899Z,927.9
2016-12-22T01:19:41.662Z,927.96
2016-12-22T01:19:58.399Z,927.9
2016-12-22T01:20:15.133Z,927.92
2016-12-22T01:20:31.897Z,927.93
2016-12-22T01:20:48.611Z,927.92
2016-12-22T01:21:05.395Z,927.91
2016-12-22T01:21:22.123Z,927.94
2016-12-22T01:21:38.850Z,927.92
2016-12-22T01:21:55.556Z,927.87
2016-12-22T01:22:12.302Z,927.91
2016-12-22T01:22:29.025Z,927.85
2016-12-22T01:22:45.773Z,927.9
2016-12-22T01:23:02.480Z,927.91
2016-12-22T01:23:19.215Z,927.92
2016-12-22T01:23:35.991Z,927.9
2016-12-22T01:23:52.718Z,927.91
2016-12-22T01:24:09.470Z,927.88
2016-12-22T01:24:26.197Z,927.86
2016-12-22T01:24:42.917Z,927.89
2016-12-22T01:24:59.655Z,927.91
2016-12-22T01:25:16.373Z,927.91
2016-12-22T01:25:33.235Z,927.88
2016-12-22T01:25:49.924Z,927.91
2016-12-22T01:26:06.697Z,927.86
2016-12-22T01:26:23.948Z,927.87
2016-12-22T01:26:40.648Z,927.9
2016-12-22T01:26:57.396Z,927.91
2016-12-22T01:27:14.109Z,927.92
2016-12-22T01:27:30.823Z,927.89
2016-12-22T01:27:47.549Z,927.9
2016-12-22T01:28:04.280Z,927.94
2016-12-22T01:28:21.001Z,927.89
2016-12-22T01:28:37.810Z,927.88
2016-12-22T01:28:54.536Z,927.87
2016-12-22T01:29:11.713Z,927.92
2016-12-22T01:29:28.444Z,927.92
2016-12-22T01:29:45.178Z,927.91
2016-12-22T01:30:01.902Z,927.92
2016-12-22T01:30:18.611Z,927.93
2016-12-22T01:30:35.336Z,927.95
2016-12-22T01:30:52.070Z,927.94
2016-12-22T01:31:08.799Z,927.91
2016-12-22T01:31:25.518Z,927.92
2016-12-22T01:31:42.483Z,927.93
2016-12-22T01:31:59.203Z,927.95
2016-12-22T01:32:16.044Z,927.97
2016-12-22T01:32:32.793Z,927.94
2016-12-22T01:32:49.502Z,927.94
2016-12-22T01:33:06.263Z,927.94
2016-12-22T01:33:23.003Z,927.97
2016-12-22T01:33:39.955Z,927.95
2016-12-22T01:33:56.666Z,927.97
2016-12-22T01:34:13.439Z,927.94
2016-12-22T01:34:30.156Z,927.97
2016-12-22T01:34:46.965Z,927.96
2016-12-22T01:35:03.654Z,927.99
2016-12-22T01:35:20.391Z,927.95
2016-12-22T01:35:37.338Z,927.96
2016-12-22T01:35:54.093Z,927.96
2016-12-22T01:36:10.832Z,928.02
2016-12-22T01:36:28.056Z,927.99
2016-12-22T01:36:44.820Z,928.03
2016-12-22T01:37:01.887Z,928.01
2016-12-22T01:37:18.656Z,928.01
2016-12-22T01:37:35.363Z,928.03
2016-12-22T01:37:52.079Z,928.02
2016-12-22T01:38:08.834Z,928.04
2016-12-22T01:38:25.530Z,928.05
2016-12-22T01:38:42.471Z,928.07
2016-12-22T01:38:59.227Z,928.02
2016-12-22T01:39:16.280Z,928.02
2016-12-22T01:39:33.139Z,928.02
2016-12-22T01:39:49.849Z,928.05
2016-12-22T01:40:06.616Z,928.03
2016-12-22T01:40:23.332Z,928.08
2016-12-22T01:40:40.333Z,928.06
2016-12-22T01:40:57.045Z,928.07
2016-12-22T01:41:13.826Z,928.08
2016-12-22T01:41:30.563Z,928.08
2016-12-22T01:41:47.278Z,928.05
2016-12-22T01:42:04.042Z,928.03
2016-12-22T01:42:20.790Z,928.05
2016-12-22T01:42:37.581Z,928.04
2016-12-22T01:42:54.296Z,928.05
2016-12-22T01:43:11.003Z,928.06
2016-12-22T01:43:27.721Z,928.05
2016-12-22T01:43:45.189Z,928.06
2016-12-22T01:44:01.915Z,928.06
2016-12-22T01:44:18.632Z,928.04
2016-12-22T01:44:35.902Z,928.05
2016-12-22T01:44:52.622Z,928.04
2016-12-22T01:45:09.328Z,928.06
2016-12-22T01:45:26.038Z,928.03
2016-12-22T01:45:42.767Z,928.01
2016-12-22T01:45:59.494Z,928
2016-12-22T01:46:16.224Z,928.01
2016-12-22T01:46:32.960Z,928
2016-12-22T01:46:49.687Z,928.02
2016-12-22T01:47:06.453Z,927.97
2016-12-22T01:47:23.186Z,928.01
2016-12-22T01:47:39.908Z,928.04
2016-12-22T01:47:56.620Z,928.03
2016-12-22T01:48:13.462Z,928.01
2016-12-22T01:48:30.164Z,928.05
2016-12-22T01:48:46.893Z,928.03
2016-12-22T01:49:05.329Z,928.05
2016-12-22T01:49:22.065Z,928
2016-12-22T01:49:38.783Z,928.04
2016-12-22T01:49:55.512Z,928.02
2016-12-22T01:50:12.212Z,928.02
2016-12-22T01:50:28.969Z,928.02
2016-12-22T01:50:45.707Z,928.03
2016-12-22T01:51:02.440Z,928.02
2016-12-22T01:51:19.160Z,928.03
2016-12-22T01:51:36.411Z,928.01
2016-12-22T01:51:53.118Z,928.01
2016-12-22T01:52:09.888Z,928
2016-12-22T01:52:26.664Z,928.01
2016-12-22T01:52:43.431Z,928.01
2016-12-22T01:53:00.164Z,928.04
2016-12-22T01:53:16.938Z,928.01
2016-12-22T01:53:33.687Z,928.04
2016-12-22T01:53:50.395Z,928.06
2016-12-22T01:54:07.119Z,928.03
2016-12-22T01:54:23.818Z,928.01
2016-12-22T01:54:40.544Z,928.02
2016-12-22T01:54:57.254Z,928.02
2016-12-22T01:55:14.498Z,927.98
2016-12-22T01:55:31.245Z,928.03
2016-12-22T01:55:48.109Z,928.03
2016-12-22T01:56:04.831Z,928.06
2016-12-22T01:56:21.569Z,928.01
2016-12-22T01:56:38.304Z,928
2016-12-22T01:56:55.050Z,928
2016-12-22T01:57:11.768Z,928.02
2016-12-22T01:57:28.507Z,928.01
2016-12-22T01:57:45.220Z,927.97
2016-12-22T01:58:01.917Z,928.01
2016-12-22T01:58:18.603Z,928.01
2016-12-22T01:58:35.333Z,927.99
2016-12-22T01:58:52.085Z,928.01
2016-12-22T01:59:08.820Z,928.01
2016-12-22T01:59:25.539Z,927.97
2016-12-22T01:59:42.318Z,927.97
2016-12-22T01:59:59.034Z,927.97
2016-12-22T02:00:15.762Z,927.97
2016-12-22T02:00:32.530Z,927.97
2016-12-22T02:00:49.279Z,927.97
2016-12-22T02:01:06.017Z,927.96
2016-12-22T02:01:22.759Z,927.98
2016-12-22T02:01:39.508Z,927.98
2016-12-22T02:01:56.237Z,927.98
2016-12-22T02:02:12.981Z,927.98
2016-12-22T02:02:29.702Z,927.95
2016-12-22T02:02:46.410Z,927.95
2016-12-22T02:03:03.151Z,927.99
2016-12-22T02:03:19.902Z,927.99
2016-12-22T02:03:36.610Z,928
2016-12-22T02:03:53.334Z,928
2016-12-22T02:04:10.067Z,928
2016-12-22T02:04:26.810Z,928
2016-12-22T02:04:43.536Z,927.97
2016-12-22T02:05:00.270Z,927.98
2016-12-22T02:05:16.984Z,928
2016-12-22T02:05:33.699Z,928.02
2016-12-22T02:05:50.517Z,928
2016-12-22T02:06:07.247Z,927.99
2016-12-22T02:06:23.977Z,927.96
2016-12-22T02:06:40.705Z,927.94
2016-12-22T02:06:57.435Z,927.95
2016-12-22T02:07:14.175Z,927.95
2016-12-22T02:07:30.931Z,927.98
2016-12-22T02:07:47.640Z,927.96
2016-12-22T02:08:04.362Z,927.96
2016-12-22T02:08:21.079Z,927.95
2016-12-22T02:08:37.796Z,927.93
2016-12-22T02:08:54.535Z,927.89
2016-12-22T02:09:11.272Z,927.94
2016-12-22T02:09:27.996Z,927.94
2016-12-22T02:09:44.720Z,927.91
2016-12-22T02:10:01.454Z,927.9
2016-12-22T02:10:18.173Z,927.93
2016-12-22T02:10:34.909Z,927.89
2016-12-22T02:10:51.856Z,927.9
2016-12-22T02:11:08.606Z,927.9
2016-12-22T02:11:25.332Z,927.93
2016-12-22T02:11:42.059Z,927.89
2016-12-22T02:11:58.806Z,927.91
2016-12-22T02:12:15.530Z,927.9
2016-12-22T02:12:32.236Z,927.9
2016-12-22T02:12:49.029Z,927.9
2016-12-22T02:13:05.742Z,927.9
2016-12-22T02:13:22.472Z,927.88
2016-12-22T02:13:39.197Z,927.89
2016-12-22T02:13:55.984Z,927.89
2016-12-22T02:14:12.698Z,927.87
2016-12-22T02:14:29.517Z,927.9
2016-12-22T02:14:46.245Z,927.86
2016-12-22T02:15:02.964Z,927.85
2016-12-22T02:15:19.712Z,927.86
2016-12-22T02:15:36.437Z,927.9
2016-12-22T02:15:53.169Z,927.9
2016-12-22T02:16:09.911Z,927.86
2016-12-22T02:16:26.661Z,927.85
2016-12-22T02:16:43.398Z,927.87
2016-12-22T02:17:00.221Z,927.84
2016-12-22T02:17:16.948Z,927.83
2016-12-22T02:17:33.682Z,927.91
2016-12-22T02:17:50.416Z,927.87
2016-12-22T02:18:07.169Z,927.84
2016-12-22T02:18:23.892Z,927.88
2016-12-22T02:18:40.638Z,927.87
2016-12-22T02:18:57.387Z,927.88
2016-12-22T02:19:14.123Z,927.87
2016-12-22T02:19:30.891Z,927.87
2016-12-22T02:19:47.610Z,927.86
2016-12-22T02:20:04.306Z,927.82
2016-12-22T02:20:21.044Z,927.84
2016-12-22T02:20:37.771Z,927.83
2016-12-22T02:20:54.476Z,927.85
2016-12-22T02:21:11.178Z,927.85
2016-12-22T02:21:27.905Z,927.83
2016-12-22T02:21:44.630Z,927.83
2016-12-22T02:22:01.852Z,927.87
2016-12-22T02:22:18.573Z,927.84
2016-12-22T02:22:35.288Z,927.8
2016-12-22T02:22:52.008Z,927.81
2016-12-22T02:23:08.768Z,927.81
2016-12-22T02:23:25.487Z,927.8
2016-12-22T02:23:42.197Z,927.8
2016-12-22T02:23:58.926Z,927.78
2016-12-22T02:24:15.655Z,927.79
2016-12-22T02:24:32.354Z,927.8
2016-12-22T02:24:49.076Z,927.82
2016-12-22T02:25:05.792Z,927.81
2016-12-22T02:25:22.504Z,927.82
2016-12-22T02:25:39.207Z,927.83
2016-12-22T02:25:56.036Z,927.82
2016-12-22T02:26:12.750Z,927.84
2016-12-22T02:26:29.466Z,927.82
2016-12-22T02:26:46.222Z,927.8
2016-12-22T02:27:02.948Z,927.83
2016-12-22T02:27:19.663Z,927.82
2016-12-22T02:27:36.391Z,927.82
2016-12-22T02:27:53.628Z,927.78
2016-12-22T02:28:10.331Z,927.81
2016-12-22T02:28:27.046Z,927.83
2016-12-22T02:28:43.756Z,927.78
2016-12-22T02:29:00.490Z,927.77
2016-12-22T02:29:17.729Z,927.75
2016-12-22T02:29:34.448Z,927.75
2016-12-22T02:29:51.196Z,927.77
2016-12-22T02:30:07.924Z,927.78
2016-12-22T02:30:24.644Z,927.78
2016-12-22T02:30:41.382Z,927.75
2016-12-22T02:30:58.116Z,927.75
2016-12-22T02:31:14.840Z,927.77
2016-12-22T02:31:31.620Z,927.78
2016-12-22T02:31:48.330Z,927.77
2016-12-22T02:32:05.043Z,927.76
2016-12-22T02:32:21.825Z,927.77
2016-12-22T02:32:38.552Z,927.77
2016-12-22T02:32:55.288Z,927.75
2016-12-22T02:33:12.032Z,927.75
2016-12-22T02:33:28.775Z,927.77
2016-12-22T02:33:45.499Z,927.76
2016-12-22T02:34:02.273Z,927.74
2016-12-22T02:34:18.990Z,927.76
2016-12-22T02:34:35.705Z,927.75
2016-12-22T02:34:52.445Z,927.76
2016-12-22T02:35:09.153Z,927.75
2016-12-22T02:35:25.898Z,927.73
2016-12-22T02:35:42.645Z,927.7
2016-12-22T02:35:59.484Z,927.74
2016-12-22T02:36:16.225Z,927.68
2016-12-22T02:36:32.957Z,927.67
2016-12-22T02:36:49.696Z,927.68
2016-12-22T02:37:06.414Z,927.68
2016-12-22T02:37:23.166Z,927.7
2016-12-22T02:37:39.928Z,927.68
2016-12-22T02:37:56.641Z,927.68
2016-12-22T02:38:13.370Z,927.69
2016-12-22T02:38:30.144Z,927.7
2016-12-22T02:38:46.882Z,927.69
2016-12-22T02:39:03.581Z,927.68
2016-12-22T02:39:20.823Z,927.7
2016-12-22T02:39:37.550Z,927.67
2016-12-22T02:39:54.311Z,927.7
2016-12-22T02:40:11.020Z,927.72
2016-12-22T02:40:27.744Z,927.71
2016-12-22T02:40:44.474Z,927.72
2016-12-22T02:41:01.444Z,927.69
2016-12-22T02:41:18.212Z,927.69
2016-12-22T02:41:34.944Z,927.67
2016-12-22T02:41:51.683Z,927.72
2016-12-22T02:42:08.393Z,927.73
2016-12-22T02:42:25.116Z,927.71
2016-12-22T02:42:41.832Z,927.71
2016-12-22T02:42:58.571Z,927.7
2016-12-22T02:43:15.304Z,927.68
2016-12-22T02:43:32.006Z,927.68
2016-12-22T02:43:48.730Z,927.66
2016-12-22T02:44:05.474Z,927.64
2016-12-22T02:44:22.212Z,927.66
2016-12-22T02:44:38.932Z,927.63
2016-12-22T02:44:55.684Z,927.66
2016-12-22T02:45:12.428Z,927.66
2016-12-22T02:45:29.660Z,927.65
2016-12-22T02:45:46.364Z,927.64
2016-12-22T02:46:03.599Z,927.65
2016-12-22T02:46:20.348Z,927.65
2016-12-22T02:46:37.100Z,927.65
2016-12-22T02:46:53.817Z,927.63
2016-12-22T02:47:10.532Z,927.64
2016-12-22T02:47:27.231Z,927.65
2016-12-22T02:47:43.950Z,927.66
2016-12-22T02:48:00.658Z,927.67
2016-12-22T02:48:17.395Z,927.69
2016-12-22T02:48:34.139Z,927.66
2016-12-22T02:48:50.858Z,927.62
2016-12-22T02:49:07.600Z,927.64
2016-12-22T02:49:24.351Z,927.61
2016-12-22T02:49:41.100Z,927.68
2016-12-22T02:49:57.853Z,927.66
2016-12-22T02:50:14.606Z,927.59
2016-12-22T02:50:31.331Z,927.63
2016-12-22T02:50:48.040Z,927.63
2016-12-22T02:51:04.762Z,927.61
2016-12-22T02:51:21.557Z,927.6
2016-12-22T02:51:38.293Z,927.62
2016-12-22T02:51:55.010Z,927.6
2016-12-22T02:52:11.714Z,927.6
2016-12-22T02:52:28.478Z,927.56
2016-12-22T02:52:45.206Z,927.61
2016-12-22T02:53:01.968Z,927.57
2016-12-22T02:53:19.210Z,927.54
2016-12-22T02:53:35.908Z,927.56
2016-12-22T02:53:52.646Z,927.59
2016-12-22T02:54:09.366Z,927.57
2016-12-22T02:54:26.103Z,927.58
2016-12-22T02:54:42.815Z,927.56
2016-12-22T02:54:59.521Z,927.56
2016-12-22T02:55:16.760Z,927.56
2016-12-22T02:55:33.487Z,927.57
2016-12-22T02:55:50.218Z,927.59
2016-12-22T02:56:07.078Z,927.54
2016-12-22T02:56:23.803Z,927.55
2016-12-22T02:56:40.532Z,927.55
2016-12-22T02:56:57.236Z,927.58
2016-12-22T02:57:13.967Z,927.59
2016-12-22T02:57:30.717Z,927.57
2016-12-22T02:57:47.437Z,927.56
2016-12-22T02:58:04.163Z,927.56
2016-12-22T02:58:20.882Z,927.61
2016-12-22T02:58:37.588Z,927.55
2016-12-22T02:58:54.297Z,927.51
2016-12-22T02:59:11.038Z,927.59
2016-12-22T02:59:27.800Z,927.56
2016-12-22T02:59:44.531Z,927.55
2016-12-22T03:00:01.264Z,927.57
2016-12-22T03:00:18.488Z,927.55
2016-12-22T03:00:36.366Z,927.54
2016-12-22T03:00:53.095Z,927.56
2016-12-22T03:01:09.824Z,927.56
2016-12-22T03:01:26.563Z,927.52
2016-12-22T03:01:43.275Z,927.55
2016-12-22T03:02:00.027Z,927.56
2016-12-22T03:02:16.788Z,927.56
2016-12-22T03:02:33.504Z,927.55
2016-12-22T03:02:50.219Z,927.56
2016-12-22T03:03:06.947Z,927.57
2016-12-22T03:03:23.820Z,927.54
2016-12-22T03:03:41.049Z,927.58
2016-12-22T03:03:57.878Z,927.57
2016-12-22T03:04:14.800Z,927.51
2016-12-22T03:04:31.537Z,927.57
2016-12-22T03:04:48.264Z,927.55
2016-12-22T03:05:04.963Z,927.57
2016-12-22T03:05:21.654Z,927.56
2016-12-22T03:05:38.354Z,927.61
2016-12-22T03:05:55.066Z,927.6
2016-12-22T03:06:11.889Z,927.59
2016-12-22T03:06:28.634Z,927.57
2016-12-22T03:06:45.352Z,927.57
2016-12-22T03:07:02.083Z,927.58
2016-12-22T03:07:18.816Z,927.61
2016-12-22T03:07:35.550Z,927.6
2016-12-22T03:07:52.284Z,927.6
2016-12-22T03:08:09.037Z,927.59
2016-12-22T03:08:25.801Z,927.6
2016-12-22T03:08:42.529Z,927.6
2016-12-22T03:08:59.260Z,927.57
2016-12-22T03:09:16.000Z,927.59
2016-12-22T03:09:32.764Z,927.58
2016-12-22T03:09:49.466Z,927.61
2016-12-22T03:10:06.220Z,927.6
2016-12-22T03:10:22.955Z,927.6
2016-12-22T03:10:39.674Z,927.6
2016-12-22T03:10:56.426Z,927.58
2016-12-22T03:11:13.223Z,927.61
2016-12-22T03:11:29.939Z,927.63
2016-12-22T03:11:46.683Z,927.62
2016-12-22T03:12:03.429Z,927.66
2016-12-22T03:12:20.669Z,927.63
2016-12-22T03:12:37.400Z,927.66
2016-12-22T03:12:54.100Z,927.64
2016-12-22T03:13:10.831Z,927.64
2016-12-22T03:13:27.573Z,927.62
2016-12-22T03:13:44.290Z,927.62
2016-12-22T03:14:01.031Z,927.64
2016-12-22T03:14:17.759Z,927.65
2016-12-22T03:14:34.471Z,927.66
2016-12-22T03:14:51.203Z,927.63
2016-12-22T03:15:07.914Z,927.64
2016-12-22T03:15:24.633Z,927.64
2016-12-22T03:15:41.378Z,927.66
2016-12-22T03:15:58.628Z,927.66
2016-12-22T03:16:15.872Z,927.65
2016-12-22T03:16:32.589Z,927.69
2016-12-22T03:16:49.329Z,927.63
2016-12-22T03:17:06.037Z,927.65
2016-12-22T03:17:22.754Z,927.64
2016-12-22T03:17:39.484Z,927.61
2016-12-22T03:17:56.213Z,927.62
2016-12-22T03:18:12.927Z,927.61
2016-12-22T03:18:29.670Z,927.61
2016-12-22T03:18:46.396Z,927.62
2016-12-22T03:19:03.098Z,927.58
2016-12-22T03:19:20.333Z,927.59
2016-12-22T03:19:37.054Z,927.58
2016-12-22T03:20:25.007Z,927.59
2016-12-22T03:20:41.723Z,927.57
2016-12-22T03:20:58.472Z,927.6
2016-12-22T03:21:15.193Z,927.55
2016-12-22T03:21:31.903Z,927.55
2016-12-22T03:21:48.632Z,927.54
2016-12-22T03:22:05.390Z,927.54
2016-12-22T03:22:22.120Z,927.58
2016-12-22T03:22:38.887Z,927.54
2016-12-22T03:22:55.609Z,927.58
2016-12-22T03:23:12.328Z,927.57
2016-12-22T03:23:29.061Z,927.57
2016-12-22T03:23:45.846Z,927.55
2016-12-22T03:24:03.083Z,927.56
2016-12-22T03:24:19.812Z,927.61
2016-12-22T03:24:36.578Z,927.59
2016-12-22T03:24:53.337Z,927.56
2016-12-22T03:25:10.602Z,927.54
2016-12-22T03:25:27.396Z,927.54
2016-12-22T03:25:44.113Z,927.52
2016-12-22T03:26:00.838Z,927.5
2016-12-22T03:26:17.658Z,927.53
2016-12-22T03:26:34.899Z,927.47
2016-12-22T03:26:51.637Z,927.48
2016-12-22T03:27:08.348Z,927.47
2016-12-22T03:27:25.071Z,927.47
2016-12-22T03:27:41.772Z,927.46
2016-12-22T03:27:58.484Z,927.48
2016-12-22T03:28:15.211Z,927.44
2016-12-22T03:28:31.927Z,927.44
2016-12-22T03:28:48.630Z,927.46
2016-12-22T03:29:05.379Z,927.45
2016-12-22T03:29:22.135Z,927.45
2016-12-22T03:29:38.873Z,927.46
2016-12-22T03:29:55.600Z,927.46
2016-12-22T03:30:12.340Z,927.34
2016-12-22T03:30:29.090Z,927.4